sensor_id;sensor_type;location;lat;lon;timestamp;temperature;humidity
53800;DHT22;39708;53.210;6.948;2023-02-26T00:01:18;0.90;99.90
53800;DHT22;39708;53.210;6.948;2023-02-26T00:03:48;0.90;99.90
53800;DHT22;39708;53.210;6.948;2023-02-26T00:06:13;0.80;99.90
53800;DHT22;39708;53.210;6.948;2023-02-26T00:08:39;0.80;99.90
53800;DHT22;39708;53.210;6.948;2023-02-26T00:11:09;0.80;99.90
53800;DHT22;39708;53.210;6.948;2023-02-26T00:13:36;0.80;99.90
53800;DHT22;39708;53.210;6.948;2023-02-26T00:16:02;0.80;99.90
53800;DHT22;39708;53.210;6.948;2023-02-26T00:18:30;0.80;99.90
53800;DHT22;39708;53.210;6.948;2023-02-26T00:20:56;0.80;99.90
53800;DHT22;39708;53.210;6.948;2023-02-26T00:23:22;0.80;99.90
53800;DHT22;39708;53.210;6.948;2023-02-26T00:25:49;0.80;99.90
53800;DHT22;39708;53.210;6.948;2023-02-26T00:28:14;0.80;99.90
53800;DHT22;39708;53.210;6.948;2023-02-26T00:30:40;0.80;99.90
53800;DHT22;39708;53.210;6.948;2023-02-26T00:33:06;0.70;99.90
53800;DHT22;39708;53.210;6.948;2023-02-26T00:35:32;0.70;99.90
53800;DHT22;39708;53.210;6.948;2023-02-26T00:38:02;0.60;99.90
53800;DHT22;39708;53.210;6.948;2023-02-26T00:42:54;0.50;99.90
53800;DHT22;39708;53.210;6.948;2023-02-26T00:45:20;0.30;99.90
53800;DHT22;39708;53.210;6.948;2023-02-26T00:54:08;-0.10;99.90
53800;DHT22;39708;53.210;6.948;2023-02-26T00:56:37;-0.10;99.90
53800;DHT22;39708;53.210;6.948;2023-02-26T00:59:03;0.10;99.90
53800;DHT22;39708;53.210;6.948;2023-02-26T01:01:28;0.00;99.90
53800;DHT22;39708;53.210;6.948;2023-02-26T01:03:55;-0.20;99.90
53800;DHT22;39708;53.210;6.948;2023-02-26T01:06:21;-0.30;99.90
53800;DHT22;39708;53.210;6.948;2023-02-26T01:09:09;0.20;99.90
53800;DHT22;39708;53.210;6.948;2023-02-26T01:11:37;-0.30;99.90
53800;DHT22;39708;53.210;6.948;2023-02-26T01:14:04;-0.40;99.90
53800;DHT22;39708;53.210;6.948;2023-02-26T01:16:34;-0.40;99.90
53800;DHT22;39708;53.210;6.948;2023-02-26T01:19:08;-0.30;99.90
53800;DHT22;39708;53.210;6.948;2023-02-26T01:21:44;-0.20;99.90
53800;DHT22;39708;53.210;6.948;2023-02-26T01:24:15;-0.20;99.90
53800;DHT22;39708;53.210;6.948;2023-02-26T01:26:42;-0.40;99.90
53800;DHT22;39708;53.210;6.948;2023-02-26T01:29:08;-0.30;99.90
53800;DHT22;39708;53.210;6.948;2023-02-26T01:32:00;-0.70;99.90
53800;DHT22;39708;53.210;6.948;2023-02-26T01:42:43;-0.70;99.90
53800;DHT22;39708;53.210;6.948;2023-02-26T01:45:14;-0.70;99.90
53800;DHT22;39708;53.210;6.948;2023-02-26T01:50:18;0.90;99.90
53800;DHT22;39708;53.210;6.948;2023-02-26T01:55:23;-0.70;99.90
53800;DHT22;39708;53.210;6.948;2023-02-26T01:57:50;-0.40;99.90
53800;DHT22;39708;53.210;6.948;2023-02-26T02:00:17;-1.10;99.90
53800;DHT22;39708;53.210;6.948;2023-02-26T02:02:43;-1.20;99.90
53800;DHT22;39708;53.210;6.948;2023-02-26T02:05:31;-1.40;99.90
53800;DHT22;39708;53.210;6.948;2023-02-26T02:07:58;-1.20;99.90
53800;DHT22;39708;53.210;6.948;2023-02-26T02:10:24;-0.90;99.90
53800;DHT22;39708;53.210;6.948;2023-02-26T02:15:45;-0.90;99.90
53800;DHT22;39708;53.210;6.948;2023-02-26T02:18:20;-0.70;99.90
53800;DHT22;39708;53.210;6.948;2023-02-26T02:21:26;-0.70;99.90
53800;DHT22;39708;53.210;6.948;2023-02-26T02:24:08;-1.50;99.90
53800;DHT22;39708;53.210;6.948;2023-02-26T02:26:42;-1.50;99.90
53800;DHT22;39708;53.210;6.948;2023-02-26T02:29:21;-1.40;99.90
53800;DHT22;39708;53.210;6.948;2023-02-26T02:32:00;-1.30;99.90
53800;DHT22;39708;53.210;6.948;2023-02-26T02:34:39;-1.70;99.90
53800;DHT22;39708;53.210;6.948;2023-02-26T02:37:13;-1.60;99.90
53800;DHT22;39708;53.210;6.948;2023-02-26T02:42:19;-1.50;99.90
53800;DHT22;39708;53.210;6.948;2023-02-26T02:44:49;-1.20;99.90
53800;DHT22;39708;53.210;6.948;2023-02-26T02:47:17;-1.30;99.90
53800;DHT22;39708;53.210;6.948;2023-02-26T02:52:52;-1.40;99.90
53800;DHT22;39708;53.210;6.948;2023-02-26T02:55:43;-1.40;99.90
53800;DHT22;39708;53.210;6.948;2023-02-26T02:58:14;-1.70;99.90
53800;DHT22;39708;53.210;6.948;2023-02-26T03:00:49;-1.80;99.90
53800;DHT22;39708;53.210;6.948;2023-02-26T03:06:05;-1.50;99.90
53800;DHT22;39708;53.210;6.948;2023-02-26T03:08:36;-1.90;99.90
53800;DHT22;39708;53.210;6.948;2023-02-26T03:11:03;-1.70;99.90
53800;DHT22;39708;53.210;6.948;2023-02-26T03:13:28;-1.30;99.90
53800;DHT22;39708;53.210;6.948;2023-02-26T03:16:37;-1.90;99.90
53800;DHT22;39708;53.210;6.948;2023-02-26T03:19:20;-2.00;99.90
53800;DHT22;39708;53.210;6.948;2023-02-26T03:21:56;-2.20;99.90
53800;DHT22;39708;53.210;6.948;2023-02-26T03:27:59;-2.20;99.90
53800;DHT22;39708;53.210;6.948;2023-02-26T03:30:51;-2.30;99.90
53800;DHT22;39708;53.210;6.948;2023-02-26T03:35:58;-2.20;99.90
53800;DHT22;39708;53.210;6.948;2023-02-26T03:38:53;-2.20;99.90
53800;DHT22;39708;53.210;6.948;2023-02-26T03:41:33;-2.10;99.90
53800;DHT22;39708;53.210;6.948;2023-02-26T03:44:06;-2.10;99.90
53800;DHT22;39708;53.210;6.948;2023-02-26T03:46:39;-1.90;99.90
53800;DHT22;39708;53.210;6.948;2023-02-26T03:49:12;-1.90;99.90
53800;DHT22;39708;53.210;6.948;2023-02-26T03:51:39;-1.80;99.90
53800;DHT22;39708;53.210;6.948;2023-02-26T03:54:22;-2.00;99.90
53800;DHT22;39708;53.210;6.948;2023-02-26T03:56:50;-1.90;99.90
53800;DHT22;39708;53.210;6.948;2023-02-26T03:59:17;-2.00;99.90
53800;DHT22;39708;53.210;6.948;2023-02-26T04:04:46;-1.80;99.90
53800;DHT22;39708;53.210;6.948;2023-02-26T04:07:15;-2.00;99.90
53800;DHT22;39708;53.210;6.948;2023-02-26T04:09:51;-2.00;99.90
53800;DHT22;39708;53.210;6.948;2023-02-26T04:12:25;-1.70;99.90
53800;DHT22;39708;53.210;6.948;2023-02-26T04:14:51;-1.90;99.90
53800;DHT22;39708;53.210;6.948;2023-02-26T04:17:16;-2.00;99.90
53800;DHT22;39708;53.210;6.948;2023-02-26T04:19:42;-1.90;99.90
53800;DHT22;39708;53.210;6.948;2023-02-26T04:22:08;-1.60;99.90
53800;DHT22;39708;53.210;6.948;2023-02-26T04:24:34;-1.30;99.90
53800;DHT22;39708;53.210;6.948;2023-02-26T04:27:00;-1.20;99.90
53800;DHT22;39708;53.210;6.948;2023-02-26T04:29:25;-1.20;99.90
53800;DHT22;39708;53.210;6.948;2023-02-26T04:31:52;-1.50;99.90
53800;DHT22;39708;53.210;6.948;2023-02-26T04:34:18;-1.70;99.90
53800;DHT22;39708;53.210;6.948;2023-02-26T04:36:43;-2.00;99.90
53800;DHT22;39708;53.210;6.948;2023-02-26T04:39:10;-2.40;99.90
53800;DHT22;39708;53.210;6.948;2023-02-26T04:41:36;-2.30;99.90
53800;DHT22;39708;53.210;6.948;2023-02-26T04:44:03;-2.50;99.90
53800;DHT22;39708;53.210;6.948;2023-02-26T04:46:29;-2.40;99.90
53800;DHT22;39708;53.210;6.948;2023-02-26T04:48:54;-2.70;99.90
53800;DHT22;39708;53.210;6.948;2023-02-26T04:51:20;-2.50;99.90
53800;DHT22;39708;53.210;6.948;2023-02-26T04:53:46;-2.50;99.90
53800;DHT22;39708;53.210;6.948;2023-02-26T04:56:11;-2.40;99.90
53800;DHT22;39708;53.210;6.948;2023-02-26T04:58:37;-2.50;99.90
53800;DHT22;39708;53.210;6.948;2023-02-26T05:01:03;-2.40;99.90
53800;DHT22;39708;53.210;6.948;2023-02-26T05:03:29;-2.50;99.90
53800;DHT22;39708;53.210;6.948;2023-02-26T05:05:54;-2.70;99.90
53800;DHT22;39708;53.210;6.948;2023-02-26T05:08:20;-2.60;99.90
53800;DHT22;39708;53.210;6.948;2023-02-26T05:10:46;-2.50;99.90
53800;DHT22;39708;53.210;6.948;2023-02-26T05:13:12;-2.50;99.90
53800;DHT22;39708;53.210;6.948;2023-02-26T05:15:38;-1.50;99.90
53800;DHT22;39708;53.210;6.948;2023-02-26T05:18:03;-2.20;99.90
53800;DHT22;39708;53.210;6.948;2023-02-26T05:20:29;-2.30;99.90
53800;DHT22;39708;53.210;6.948;2023-02-26T05:22:54;-2.10;99.90
53800;DHT22;39708;53.210;6.948;2023-02-26T05:25:20;-1.70;99.90
53800;DHT22;39708;53.210;6.948;2023-02-26T05:27:46;-1.70;99.90
53800;DHT22;39708;53.210;6.948;2023-02-26T05:30:13;-1.50;99.90
53800;DHT22;39708;53.210;6.948;2023-02-26T05:32:40;-1.40;99.90
53800;DHT22;39708;53.210;6.948;2023-02-26T05:35:05;-1.40;99.90
53800;DHT22;39708;53.210;6.948;2023-02-26T05:37:31;-1.40;99.90
53800;DHT22;39708;53.210;6.948;2023-02-26T05:39:57;-1.50;99.90
53800;DHT22;39708;53.210;6.948;2023-02-26T05:42:23;-1.60;99.90
53800;DHT22;39708;53.210;6.948;2023-02-26T05:44:49;-2.00;99.90
53800;DHT22;39708;53.210;6.948;2023-02-26T05:47:15;-2.00;99.90
53800;DHT22;39708;53.210;6.948;2023-02-26T05:49:41;-2.10;99.90
53800;DHT22;39708;53.210;6.948;2023-02-26T05:52:07;-1.70;99.90
53800;DHT22;39708;53.210;6.948;2023-02-26T05:54:32;-2.00;99.90
53800;DHT22;39708;53.210;6.948;2023-02-26T05:56:58;-1.90;99.90
53800;DHT22;39708;53.210;6.948;2023-02-26T05:59:24;-2.10;99.90
53800;DHT22;39708;53.210;6.948;2023-02-26T06:01:50;-2.10;99.90
53800;DHT22;39708;53.210;6.948;2023-02-26T06:04:16;-2.20;99.90
53800;DHT22;39708;53.210;6.948;2023-02-26T06:06:42;-2.30;99.90
53800;DHT22;39708;53.210;6.948;2023-02-26T06:09:07;-2.20;99.90
53800;DHT22;39708;53.210;6.948;2023-02-26T06:11:33;-2.30;99.90
53800;DHT22;39708;53.210;6.948;2023-02-26T06:13:59;-2.20;99.90
53800;DHT22;39708;53.210;6.948;2023-02-26T06:16:25;-2.40;99.90
53800;DHT22;39708;53.210;6.948;2023-02-26T06:18:50;-2.50;99.90
53800;DHT22;39708;53.210;6.948;2023-02-26T06:21:17;-2.40;99.90
53800;DHT22;39708;53.210;6.948;2023-02-26T06:23:43;-2.50;99.90
53800;DHT22;39708;53.210;6.948;2023-02-26T06:26:09;-2.40;99.90
53800;DHT22;39708;53.210;6.948;2023-02-26T06:28:34;-2.60;99.90
53800;DHT22;39708;53.210;6.948;2023-02-26T06:31:00;-2.40;99.90
53800;DHT22;39708;53.210;6.948;2023-02-26T06:33:26;-2.50;99.90
53800;DHT22;39708;53.210;6.948;2023-02-26T06:35:52;-2.50;99.90
53800;DHT22;39708;53.210;6.948;2023-02-26T06:38:18;-2.60;99.90
53800;DHT22;39708;53.210;6.948;2023-02-26T06:40:45;-2.20;99.90
53800;DHT22;39708;53.210;6.948;2023-02-26T06:43:11;-2.10;99.90
53800;DHT22;39708;53.210;6.948;2023-02-26T06:45:37;-1.90;99.90
53800;DHT22;39708;53.210;6.948;2023-02-26T06:48:03;-1.90;99.90
53800;DHT22;39708;53.210;6.948;2023-02-26T06:50:28;-2.00;99.90
53800;DHT22;39708;53.210;6.948;2023-02-26T06:52:54;-1.90;99.90
53800;DHT22;39708;53.210;6.948;2023-02-26T06:55:20;-1.80;99.90
53800;DHT22;39708;53.210;6.948;2023-02-26T06:57:55;-1.70;99.90
53800;DHT22;39708;53.210;6.948;2023-02-26T07:00:22;-1.50;99.90
53800;DHT22;39708;53.210;6.948;2023-02-26T07:02:48;-1.20;99.90
53800;DHT22;39708;53.210;6.948;2023-02-26T07:05:14;-1.10;99.90
53800;DHT22;39708;53.210;6.948;2023-02-26T07:07:40;-0.90;99.90
53800;DHT22;39708;53.210;6.948;2023-02-26T07:10:06;-0.80;99.90
53800;DHT22;39708;53.210;6.948;2023-02-26T07:12:32;-0.60;99.90
53800;DHT22;39708;53.210;6.948;2023-02-26T07:14:57;-0.40;99.90
53800;DHT22;39708;53.210;6.948;2023-02-26T07:17:23;-0.20;99.90
53800;DHT22;39708;53.210;6.948;2023-02-26T07:19:50;-0.20;99.90
53800;DHT22;39708;53.210;6.948;2023-02-26T07:22:17;-0.10;99.90
53800;DHT22;39708;53.210;6.948;2023-02-26T07:24:42;0.00;99.90
53800;DHT22;39708;53.210;6.948;2023-02-26T07:27:08;0.10;99.90
53800;DHT22;39708;53.210;6.948;2023-02-26T07:29:34;0.20;99.90
53800;DHT22;39708;53.210;6.948;2023-02-26T07:32:00;0.20;99.90
53800;DHT22;39708;53.210;6.948;2023-02-26T07:34:26;0.10;99.90
53800;DHT22;39708;53.210;6.948;2023-02-26T07:36:51;0.10;99.90
53800;DHT22;39708;53.210;6.948;2023-02-26T07:39:17;0.20;99.90
53800;DHT22;39708;53.210;6.948;2023-02-26T07:41:42;0.30;99.90
53800;DHT22;39708;53.210;6.948;2023-02-26T07:44:08;0.40;99.90
53800;DHT22;39708;53.210;6.948;2023-02-26T07:46:34;0.50;99.90
53800;DHT22;39708;53.210;6.948;2023-02-26T07:48:59;0.60;99.90
53800;DHT22;39708;53.210;6.948;2023-02-26T07:51:25;0.60;99.90
53800;DHT22;39708;53.210;6.948;2023-02-26T07:53:51;0.60;99.90
53800;DHT22;39708;53.210;6.948;2023-02-26T07:56:17;0.70;99.90
53800;DHT22;39708;53.210;6.948;2023-02-26T07:58:42;0.80;99.90
53800;DHT22;39708;53.210;6.948;2023-02-26T08:01:08;0.90;99.90
53800;DHT22;39708;53.210;6.948;2023-02-26T08:03:33;1.10;99.90
53800;DHT22;39708;53.210;6.948;2023-02-26T08:05:59;1.20;99.90
53800;DHT22;39708;53.210;6.948;2023-02-26T08:08:26;1.30;99.90
53800;DHT22;39708;53.210;6.948;2023-02-26T08:10:52;1.40;99.90
53800;DHT22;39708;53.210;6.948;2023-02-26T08:13:18;1.60;99.90
53800;DHT22;39708;53.210;6.948;2023-02-26T08:15:43;1.70;99.90
53800;DHT22;39708;53.210;6.948;2023-02-26T08:18:10;1.90;99.90
53800;DHT22;39708;53.210;6.948;2023-02-26T08:20:35;1.90;99.90
53800;DHT22;39708;53.210;6.948;2023-02-26T08:23:01;1.90;99.90
53800;DHT22;39708;53.210;6.948;2023-02-26T08:25:27;1.90;99.90
53800;DHT22;39708;53.210;6.948;2023-02-26T08:27:53;1.90;99.90
53800;DHT22;39708;53.210;6.948;2023-02-26T08:30:18;2.00;99.90
53800;DHT22;39708;53.210;6.948;2023-02-26T08:32:44;2.10;99.90
53800;DHT22;39708;53.210;6.948;2023-02-26T08:35:10;2.10;99.90
53800;DHT22;39708;53.210;6.948;2023-02-26T08:37:37;2.20;99.90
53800;DHT22;39708;53.210;6.948;2023-02-26T08:40:05;2.20;99.90
53800;DHT22;39708;53.210;6.948;2023-02-26T08:42:31;2.20;99.90
53800;DHT22;39708;53.210;6.948;2023-02-26T08:44:56;2.20;99.90
53800;DHT22;39708;53.210;6.948;2023-02-26T08:47:22;2.30;99.90
53800;DHT22;39708;53.210;6.948;2023-02-26T08:49:48;2.30;99.90
53800;DHT22;39708;53.210;6.948;2023-02-26T08:52:13;2.50;99.90
53800;DHT22;39708;53.210;6.948;2023-02-26T08:54:39;2.50;99.90
53800;DHT22;39708;53.210;6.948;2023-02-26T08:57:05;2.60;99.90
53800;DHT22;39708;53.210;6.948;2023-02-26T08:59:31;2.70;99.90
53800;DHT22;39708;53.210;6.948;2023-02-26T09:01:56;2.70;99.90
53800;DHT22;39708;53.210;6.948;2023-02-26T09:04:22;3.80;99.90
53800;DHT22;39708;53.210;6.948;2023-02-26T09:06:48;2.70;99.90
53800;DHT22;39708;53.210;6.948;2023-02-26T09:09:14;2.60;99.90
53800;DHT22;39708;53.210;6.948;2023-02-26T09:11:39;2.60;99.90
53800;DHT22;39708;53.210;6.948;2023-02-26T09:14:05;2.80;99.90
53800;DHT22;39708;53.210;6.948;2023-02-26T09:16:31;2.90;99.90
53800;DHT22;39708;53.210;6.948;2023-02-26T09:18:59;2.90;99.90
53800;DHT22;39708;53.210;6.948;2023-02-26T09:21:25;3.00;99.90
53800;DHT22;39708;53.210;6.948;2023-02-26T09:23:50;3.20;99.90
53800;DHT22;39708;53.210;6.948;2023-02-26T09:26:16;3.20;99.90
53800;DHT22;39708;53.210;6.948;2023-02-26T09:28:42;3.80;99.90
53800;DHT22;39708;53.210;6.948;2023-02-26T09:31:07;3.30;99.90
53800;DHT22;39708;53.210;6.948;2023-02-26T09:33:33;3.20;99.90
53800;DHT22;39708;53.210;6.948;2023-02-26T09:35:59;3.00;99.90
53800;DHT22;39708;53.210;6.948;2023-02-26T09:38:24;3.10;99.90
53800;DHT22;39708;53.210;6.948;2023-02-26T09:41:41;3.10;99.90
53800;DHT22;39708;53.210;6.948;2023-02-26T09:46:48;3.40;99.90
53800;DHT22;39708;53.210;6.948;2023-02-26T09:51:52;3.60;99.90
53800;DHT22;39708;53.210;6.948;2023-02-26T09:54:25;3.70;99.90
53800;DHT22;39708;53.210;6.948;2023-02-26T09:56:52;3.80;99.90
53800;DHT22;39708;53.210;6.948;2023-02-26T09:59:20;3.90;99.90
53800;DHT22;39708;53.210;6.948;2023-02-26T10:02:57;3.90;99.90
53800;DHT22;39708;53.210;6.948;2023-02-26T10:12:46;4.10;99.90
53800;DHT22;39708;53.210;6.948;2023-02-26T10:15:14;4.30;99.90
53800;DHT22;39708;53.210;6.948;2023-02-26T10:18:01;4.20;99.90
53800;DHT22;39708;53.210;6.948;2023-02-26T10:26:11;4.30;99.90
53800;DHT22;39708;53.210;6.948;2023-02-26T10:31:37;4.50;99.90
53800;DHT22;39708;53.210;6.948;2023-02-26T10:37:18;5.00;99.90
53800;DHT22;39708;53.210;6.948;2023-02-26T10:42:44;5.90;99.90
53800;DHT22;39708;53.210;6.948;2023-02-26T10:45:26;5.70;99.90
53800;DHT22;39708;53.210;6.948;2023-02-26T10:50:52;6.00;99.90
53800;DHT22;39708;53.210;6.948;2023-02-26T10:53:20;6.00;99.90
53800;DHT22;39708;53.210;6.948;2023-02-26T10:58:18;6.00;99.90
53800;DHT22;39708;53.210;6.948;2023-02-26T11:00:47;5.70;99.90
53800;DHT22;39708;53.210;6.948;2023-02-26T11:03:18;5.90;99.90
53800;DHT22;39708;53.210;6.948;2023-02-26T11:05:45;6.10;99.90
53800;DHT22;39708;53.210;6.948;2023-02-26T11:08:24;6.60;99.90
53800;DHT22;39708;53.210;6.948;2023-02-26T11:10:52;6.60;99.90
53800;DHT22;39708;53.210;6.948;2023-02-26T11:13:24;6.40;99.90
53800;DHT22;39708;53.210;6.948;2023-02-26T11:15:52;6.50;99.90
53800;DHT22;39708;53.210;6.948;2023-02-26T11:18:30;6.50;99.90
53800;DHT22;39708;53.210;6.948;2023-02-26T11:20:59;6.20;99.90
53800;DHT22;39708;53.210;6.948;2023-02-26T11:23:30;6.10;99.90
53800;DHT22;39708;53.210;6.948;2023-02-26T11:26:06;6.20;99.90
53800;DHT22;39708;53.210;6.948;2023-02-26T11:28:41;5.80;99.90
53800;DHT22;39708;53.210;6.948;2023-02-26T11:31:10;5.50;99.90
53800;DHT22;39708;53.210;6.948;2023-02-26T11:33:39;5.40;99.90
53800;DHT22;39708;53.210;6.948;2023-02-26T11:36:14;5.30;99.90
53800;DHT22;39708;53.210;6.948;2023-02-26T11:38:43;5.20;99.90
53800;DHT22;39708;53.210;6.948;2023-02-26T11:41:11;5.10;99.90
53800;DHT22;39708;53.210;6.948;2023-02-26T11:43:44;5.00;99.90
53800;DHT22;39708;53.210;6.948;2023-02-26T11:46:11;5.00;99.90
53800;DHT22;39708;53.210;6.948;2023-02-26T11:48:47;4.80;99.90
53800;DHT22;39708;53.210;6.948;2023-02-26T11:51:18;4.90;99.90
53800;DHT22;39708;53.210;6.948;2023-02-26T11:53:57;5.10;99.90
53800;DHT22;39708;53.210;6.948;2023-02-26T11:56:38;5.20;99.90
53800;DHT22;39708;53.210;6.948;2023-02-26T11:59:23;5.30;99.90
53800;DHT22;39708;53.210;6.948;2023-02-26T12:01:51;5.20;99.90
53800;DHT22;39708;53.210;6.948;2023-02-26T12:04:20;5.40;99.90
53800;DHT22;39708;53.210;6.948;2023-02-26T12:06:49;5.50;99.90
53800;DHT22;39708;53.210;6.948;2023-02-26T12:09:15;5.40;99.90
53800;DHT22;39708;53.210;6.948;2023-02-26T12:14:39;5.10;99.90
53800;DHT22;39708;53.210;6.948;2023-02-26T12:17:19;5.00;99.90
53800;DHT22;39708;53.210;6.948;2023-02-26T12:20:10;5.20;99.90
53800;DHT22;39708;53.210;6.948;2023-02-26T12:23:20;5.40;99.90
53800;DHT22;39708;53.210;6.948;2023-02-26T12:34:20;5.30;99.90
53800;DHT22;39708;53.210;6.948;2023-02-26T12:53:40;5.70;99.90
53800;DHT22;39708;53.210;6.948;2023-02-26T13:01:57;5.70;99.90
53800;DHT22;39708;53.210;6.948;2023-02-26T13:13:01;5.80;99.90
53800;DHT22;39708;53.210;6.948;2023-02-26T13:15:52;5.60;99.90
53800;DHT22;39708;53.210;6.948;2023-02-26T13:21:05;5.40;99.90
53800;DHT22;39708;53.210;6.948;2023-02-26T13:23:41;5.40;99.90
53800;DHT22;39708;53.210;6.948;2023-02-26T13:26:12;5.60;99.90
53800;DHT22;39708;53.210;6.948;2023-02-26T13:28:47;5.60;99.90
53800;DHT22;39708;53.210;6.948;2023-02-26T13:31:33;5.40;99.90
53800;DHT22;39708;53.210;6.948;2023-02-26T13:34:14;5.50;99.90
53800;DHT22;39708;53.210;6.948;2023-02-26T13:36:40;5.50;99.90
53800;DHT22;39708;53.210;6.948;2023-02-26T13:47:55;5.60;99.90
53800;DHT22;39708;53.210;6.948;2023-02-26T13:55:52;5.10;99.90
53800;DHT22;39708;53.210;6.948;2023-02-26T14:01:06;5.30;99.90
53800;DHT22;39708;53.210;6.948;2023-02-26T14:03:48;5.40;99.90
53800;DHT22;39708;53.210;6.948;2023-02-26T14:09:03;5.30;99.90
53800;DHT22;39708;53.210;6.948;2023-02-26T14:11:59;5.10;99.90
53800;DHT22;39708;53.210;6.948;2023-02-26T14:14:33;4.90;99.90
53800;DHT22;39708;53.210;6.948;2023-02-26T14:19:43;4.70;99.90
53800;DHT22;39708;53.210;6.948;2023-02-26T14:25:20;5.20;99.90
53800;DHT22;39708;53.210;6.948;2023-02-26T14:27:50;5.20;99.90
53800;DHT22;39708;53.210;6.948;2023-02-26T14:30:33;5.00;99.90
53800;DHT22;39708;53.210;6.948;2023-02-26T14:35:44;5.00;99.90
53800;DHT22;39708;53.210;6.948;2023-02-26T14:38:34;4.80;99.90
53800;DHT22;39708;53.210;6.948;2023-02-26T14:43:59;4.60;99.90
53800;DHT22;39708;53.210;6.948;2023-02-26T14:46:26;4.70;99.90
53800;DHT22;39708;53.210;6.948;2023-02-26T14:48:52;4.80;99.90
53800;DHT22;39708;53.210;6.948;2023-02-26T14:54:25;4.80;99.90
53800;DHT22;39708;53.210;6.948;2023-02-26T15:02:54;4.50;99.90
53800;DHT22;39708;53.210;6.948;2023-02-26T15:05:31;4.50;99.90
53800;DHT22;39708;53.210;6.948;2023-02-26T15:15:55;4.70;99.90
53800;DHT22;39708;53.210;6.948;2023-02-26T15:18:36;4.70;99.90
53800;DHT22;39708;53.210;6.948;2023-02-26T15:23:46;4.60;99.90
53800;DHT22;39708;53.210;6.948;2023-02-26T15:26:34;4.40;99.90
53800;DHT22;39708;53.210;6.948;2023-02-26T15:29:03;4.50;99.90
53800;DHT22;39708;53.210;6.948;2023-02-26T15:31:50;4.50;99.90
53800;DHT22;39708;53.210;6.948;2023-02-26T15:34:19;4.50;99.90
53800;DHT22;39708;53.210;6.948;2023-02-26T15:36:50;4.50;99.90
53800;DHT22;39708;53.210;6.948;2023-02-26T15:39:17;4.40;99.90
53800;DHT22;39708;53.210;6.948;2023-02-26T15:41:46;4.30;99.90
53800;DHT22;39708;53.210;6.948;2023-02-26T15:44:22;4.30;99.90
53800;DHT22;39708;53.210;6.948;2023-02-26T15:46:55;4.20;99.90
53800;DHT22;39708;53.210;6.948;2023-02-26T15:49:40;4.20;99.90
53800;DHT22;39708;53.210;6.948;2023-02-26T15:52:09;4.20;99.90
53800;DHT22;39708;53.210;6.948;2023-02-26T15:55:03;4.30;99.90
53800;DHT22;39708;53.210;6.948;2023-02-26T15:57:29;4.40;99.90
53800;DHT22;39708;53.210;6.948;2023-02-26T16:00:13;4.40;99.90
53800;DHT22;39708;53.210;6.948;2023-02-26T16:02:41;4.30;99.90
53800;DHT22;39708;53.210;6.948;2023-02-26T16:05:09;4.20;99.90
53800;DHT22;39708;53.210;6.948;2023-02-26T16:07:37;4.10;99.90
53800;DHT22;39708;53.210;6.948;2023-02-26T16:10:06;4.50;99.90
53800;DHT22;39708;53.210;6.948;2023-02-26T16:12:38;4.10;99.90
53800;DHT22;39708;53.210;6.948;2023-02-26T16:15:13;4.10;99.90
53800;DHT22;39708;53.210;6.948;2023-02-26T16:17:42;5.10;99.90
53800;DHT22;39708;53.210;6.948;2023-02-26T16:20:16;4.00;99.90
53800;DHT22;39708;53.210;6.948;2023-02-26T16:22:49;4.10;99.90
53800;DHT22;39708;53.210;6.948;2023-02-26T16:27:48;4.10;99.90
53800;DHT22;39708;53.210;6.948;2023-02-26T16:30:19;4.00;99.90
53800;DHT22;39708;53.210;6.948;2023-02-26T16:32:52;4.00;99.90
53800;DHT22;39708;53.210;6.948;2023-02-26T16:35:20;4.00;99.90
53800;DHT22;39708;53.210;6.948;2023-02-26T16:37:52;4.00;99.90
53800;DHT22;39708;53.210;6.948;2023-02-26T16:45:19;3.80;99.90
53800;DHT22;39708;53.210;6.948;2023-02-26T16:47:47;3.80;99.90
53800;DHT22;39708;53.210;6.948;2023-02-26T16:50:34;3.70;99.90
53800;DHT22;39708;53.210;6.948;2023-02-26T16:53:03;3.70;99.90
53800;DHT22;39708;53.210;6.948;2023-02-26T16:55:31;3.70;99.90
53800;DHT22;39708;53.210;6.948;2023-02-26T16:57:59;3.70;99.90
53800;DHT22;39708;53.210;6.948;2023-02-26T17:00:28;3.60;99.90
53800;DHT22;39708;53.210;6.948;2023-02-26T17:02:57;3.60;99.90
53800;DHT22;39708;53.210;6.948;2023-02-26T17:05:27;3.50;99.90
53800;DHT22;39708;53.210;6.948;2023-02-26T17:08:14;3.50;99.90
53800;DHT22;39708;53.210;6.948;2023-02-26T17:10:47;3.50;99.90
53800;DHT22;39708;53.210;6.948;2023-02-26T17:13:15;3.40;99.90
53800;DHT22;39708;53.210;6.948;2023-02-26T17:15:43;3.40;99.90
53800;DHT22;39708;53.210;6.948;2023-02-26T17:18:09;3.30;99.90
53800;DHT22;39708;53.210;6.948;2023-02-26T17:20:35;3.30;99.90
53800;DHT22;39708;53.210;6.948;2023-02-26T17:23:04;3.20;99.90
53800;DHT22;39708;53.210;6.948;2023-02-26T17:25:34;3.20;99.90
53800;DHT22;39708;53.210;6.948;2023-02-26T17:28:00;3.10;99.90
53800;DHT22;39708;53.210;6.948;2023-02-26T17:30:27;3.10;99.90
53800;DHT22;39708;53.210;6.948;2023-02-26T17:32:57;3.40;99.90
53800;DHT22;39708;53.210;6.948;2023-02-26T17:35:23;3.00;99.90
53800;DHT22;39708;53.210;6.948;2023-02-26T17:37:49;3.10;99.90
53800;DHT22;39708;53.210;6.948;2023-02-26T17:40:27;3.00;99.90
53800;DHT22;39708;53.210;6.948;2023-02-26T17:42:52;2.90;99.90
53800;DHT22;39708;53.210;6.948;2023-02-26T17:45:19;2.90;99.90
53800;DHT22;39708;53.210;6.948;2023-02-26T17:47:45;2.90;99.90
53800;DHT22;39708;53.210;6.948;2023-02-26T17:52:59;2.80;99.90
53800;DHT22;39708;53.210;6.948;2023-02-26T17:55:25;2.80;99.90
53800;DHT22;39708;53.210;6.948;2023-02-26T17:57:50;2.80;99.90
53800;DHT22;39708;53.210;6.948;2023-02-26T18:00:16;2.70;99.90
53800;DHT22;39708;53.210;6.948;2023-02-26T18:02:42;2.70;99.90
53800;DHT22;39708;53.210;6.948;2023-02-26T18:05:08;2.70;99.90
53800;DHT22;39708;53.210;6.948;2023-02-26T18:07:34;2.70;99.90
53800;DHT22;39708;53.210;6.948;2023-02-26T18:10:00;2.70;99.90
53800;DHT22;39708;53.210;6.948;2023-02-26T18:12:26;2.60;99.90
53800;DHT22;39708;53.210;6.948;2023-02-26T18:14:52;3.40;99.90
53800;DHT22;39708;53.210;6.948;2023-02-26T18:17:28;2.50;99.90
53800;DHT22;39708;53.210;6.948;2023-02-26T18:19:56;2.20;99.90
53800;DHT22;39708;53.210;6.948;2023-02-26T18:22:23;2.00;99.90
53800;DHT22;39708;53.210;6.948;2023-02-26T18:24:50;1.80;99.90
53800;DHT22;39708;53.210;6.948;2023-02-26T18:27:21;1.60;99.90
53800;DHT22;39708;53.210;6.948;2023-02-26T18:29:48;1.40;99.90
53800;DHT22;39708;53.210;6.948;2023-02-26T18:32:23;1.20;99.90
53800;DHT22;39708;53.210;6.948;2023-02-26T18:34:50;1.20;99.90
53800;DHT22;39708;53.210;6.948;2023-02-26T18:37:21;1.20;99.90
53800;DHT22;39708;53.210;6.948;2023-02-26T18:39:47;1.30;99.90
53800;DHT22;39708;53.210;6.948;2023-02-26T18:42:19;1.30;99.90
53800;DHT22;39708;53.210;6.948;2023-02-26T18:44:45;1.30;99.90
53800;DHT22;39708;53.210;6.948;2023-02-26T18:47:11;2.10;99.90
53800;DHT22;39708;53.210;6.948;2023-02-26T18:49:36;1.30;99.90
53800;DHT22;39708;53.210;6.948;2023-02-26T18:52:02;1.20;99.90
53800;DHT22;39708;53.210;6.948;2023-02-26T18:54:28;1.20;99.90
53800;DHT22;39708;53.210;6.948;2023-02-26T18:56:54;1.20;99.90
53800;DHT22;39708;53.210;6.948;2023-02-26T18:59:20;1.20;99.90